Paradero — 6YRG6 — position and weather

sailwx.info

Track history (hours):
 
Tides and Currents Weather Stations Pressure Air Temp Water Temp Dewpoint Dewpoint Depression Visibility Wind Speed Wind Dir Waves Ship Positions

Paradero

Last reported at 2018-Jun-19 17:50 UTC. Time now 2018-Jun-25 04:27 UTC.
Position N 25°21' W 079°60'.

Length 140 m; draft 6.4 m.

Type: Cargo ship. MMSI: 339300320.

Date/timePositionNaut miles runAvg speedWind from/ knotsBaromVisibWave heightAir tempDewpointWater temp
2018-Jun-19 17:50N 25°21' W 079°60'514.0
2018-Jun-19 17:30N 25°26' W 079°60'714.0
2018-Jun-19 17:00N 25°33' W 080°00'713.7
2018-Jun-19 16:30N 25°40' W 079°60'713.9
2018-Jun-19 16:00N 25°47' W 079°60'714.0
2018-Jun-19 15:30N 25°54' W 079°60'714.1
2018-Jun-19 15:00N 26°01' W 080°00'613.0
2018-Jun-19 14:30N 26°06' W 080°05'2 4.3
2018-Jun-19 14:00N 26°04' W 080°07'0 0.0
2018-Jun-19 13:30N 26°04' W 080°07'0 0.0
2018-Jun-19 13:00N 26°04' W 080°07'0 0.0
2018-Jun-19 12:30N 26°04' W 080°07'0 0.0
2018-Jun-19 11:57N 26°04' W 080°07'0 0.0
2018-Jun-19 11:30N 26°04' W 080°07'0 0.0
2018-Jun-19 11:00N 26°04' W 080°07'0 0.0
2018-Jun-19 10:30N 26°04' W 080°07'0 0.0
2018-Jun-19 10:00N 26°04' W 080°07'0 0.0
2018-Jun-19 09:30N 26°04' W 080°07'0 0.0
2018-Jun-19 09:00N 26°04' W 080°07'0 0.0
2018-Jun-19 08:30N 26°04' W 080°07'0 0.0
2018-Jun-19 08:00N 26°04' W 080°07'0 0.0
2018-Jun-19 07:30N 26°04' W 080°07'0 0.0
2018-Jun-19 07:00N 26°04' W 080°07'0 0.0
2018-Jun-19 06:30N 26°04' W 080°07'0 0.0
2018-Jun-19 06:00N 26°04' W 080°07'0 0.0
2018-Jun-19 05:30N 26°04' W 080°07'0 0.0
2018-Jun-19 05:00N 26°04' W 080°07'0 0.0
2018-Jun-19 04:30N 26°04' W 080°07'0 0.0
2018-Jun-19 04:00N 26°04' W 080°07'0 0.0
2018-Jun-19 03:30N 26°04' W 080°07'0 0.0
2018-Jun-19 03:00N 26°04' W 080°07'0 0.0
2018-Jun-19 02:30N 26°04' W 080°07'0 0.0
2018-Jun-19 02:00N 26°04' W 080°07'0 0.0
2018-Jun-19 01:30N 26°04' W 080°07'0 0.0
2018-Jun-19 01:00N 26°04' W 080°07'0 0.0
2018-Jun-19 00:30N 26°04' W 080°07'0 0.0
2018-Jun-19 00:00N 26°04' W 080°07'0 0.0
2018-Jun-18 23:30N 26°04' W 080°07'0 0.0
2018-Jun-18 23:00N 26°04' W 080°07'0 0.0
2018-Jun-18 22:30N 26°04' W 080°07'0 0.0
2018-Jun-18 22:00N 26°04' W 080°07'0 0.0
2018-Jun-18 21:30N 26°04' W 080°07'0 0.0
2018-Jun-18 21:00N 26°04' W 080°07'0 0.0
2018-Jun-18 20:30N 26°04' W 080°07'0 0.0
2018-Jun-18 20:00N 26°04' W 080°07'0 0.3
2018-Jun-18 19:30N 26°04' W 080°07'2 3.4
2018-Jun-18 19:00N 26°06' W 080°06'4 7.3
2018-Jun-18 18:30N 26°05' W 080°02'2 4.4
2018-Jun-18 18:00N 26°07' W 080°01'1 2.7
2018-Jun-18 17:28N 26°09' W 080°00'1 2.3
2018-Jun-18 16:58N 26°08' W 079°60'1 2.3
2018-Jun-18 16:28N 26°07' W 079°59'1 2.3
2018-Jun-18 15:58N 26°05' W 079°59'2 2.4
2018-Jun-18 15:16N 26°04' W 079°58'1 2.5
2018-Jun-18 14:49N 26°03' W 079°58'1 2.5
2018-Jun-18 14:22N 26°02' W 079°58'1 2.6
2018-Jun-18 13:52N 26°00' W 079°58'1 2.6
2018-Jun-18 13:22N 25°59' W 079°57'1 2.6
2018-Jun-18 12:52N 25°58' W 079°57'1 2.6
2018-Jun-18 12:28N 25°57' W 079°57'1 2.7
2018-Jun-18 12:00N 25°56' W 079°57'714.4
2018-Jun-18 11:30N 25°48' W 079°57'917.9
2018-Jun-18 11:00N 25°40' W 079°59'917.6
2018-Jun-18 10:30N 25°31' W 080°00'917.7
2018-Jun-18 10:00N 25°22' W 079°59'  
2018-Jun-12 05:35N 25°16' W 080°01'114.2
2018-Jun-12 05:30N 25°17' W 080°01'714.2
2018-Jun-12 05:00N 25°24' W 080°01'714.2
2018-Jun-12 04:30N 25°31' W 079°60'714.9
2018-Jun-12 04:00N 25°38' W 079°60'815.6
2018-Jun-12 03:30N 25°46' W 080°00'816.2
2018-Jun-12 03:01N 25°54' W 079°60'815.6
2018-Jun-12 02:30N 26°02' W 080°01'611.9
2018-Jun-12 02:00N 26°06' W 080°07'2 3.2
2018-Jun-12 01:28N 26°04' W 080°07'0 0.0
2018-Jun-12 00:58N 26°04' W 080°07'0 0.0
2018-Jun-12 00:28N 26°04' W 080°07'0 0.0
2018-Jun-11 23:58N 26°04' W 080°07'0 0.0
2018-Jun-11 23:28N 26°04' W 080°07'0 0.0
2018-Jun-11 22:58N 26°04' W 080°07'0 0.0
2018-Jun-11 22:28N 26°04' W 080°07'0 0.0
2018-Jun-11 21:58N 26°04' W 080°07'0 0.0
2018-Jun-11 21:28N 26°04' W 080°07'0 0.0
2018-Jun-11 20:58N 26°04' W 080°07'0 0.0
2018-Jun-11 20:28N 26°04' W 080°07'0 0.0
2018-Jun-11 19:46N 26°04' W 080°07'0 0.0
2018-Jun-11 19:25N 26°04' W 080°07'0 0.0
2018-Jun-11 18:58N 26°04' W 080°07'0 0.0
2018-Jun-11 18:28N 26°04' W 080°07'0 0.0
2018-Jun-11 17:52N 26°04' W 080°07'0 0.0
2018-Jun-11 17:22N 26°04' W 080°07'0 0.0
2018-Jun-11 16:58N 26°04' W 080°07'0 0.0
2018-Jun-11 16:25N 26°04' W 080°07'0 0.0
2018-Jun-11 15:52N 26°04' W 080°07'0 0.0
2018-Jun-11 15:22N 26°04' W 080°07'0 0.0
2018-Jun-11 14:52N 26°04' W 080°07'0 0.0
2018-Jun-11 14:22N 26°04' W 080°07'0 0.0
2018-Jun-11 13:58N 26°04' W 080°07'0 0.0
2018-Jun-11 13:28N 26°04' W 080°07'0 0.0
2018-Jun-11 12:58N 26°04' W 080°07'0 0.0
2018-Jun-11 12:28N 26°04' W 080°07'0 0.0
2018-Jun-11 11:58N 26°04' W 080°07'0 0.0
2018-Jun-11 11:28N 26°04' W 080°07'0 0.0
2018-Jun-11 10:58N 26°04' W 080°07'0 0.0
2018-Jun-11 10:25N 26°04' W 080°07'0 0.0
2018-Jun-11 09:58N 26°04' W 080°07'0 0.0
2018-Jun-11 09:30N 26°04' W 080°07'0 0.0
2018-Jun-11 09:00N 26°04' W 080°07'0 0.1
2018-Jun-11 08:30N 26°04' W 080°07'0 0.0
2018-Jun-11 08:00N 26°04' W 080°07'0 0.0
2018-Jun-11 07:30N 26°04' W 080°07'0 0.4
2018-Jun-11 07:00N 26°04' W 080°07'2 4.3
2018-Jun-11 06:30N 26°06' W 080°05'510.3
2018-Jun-11 06:00N 26°03' W 080°00'816.3
2018-Jun-11 05:30N 25°55' W 079°59'917.5
2018-Jun-11 05:01N 25°46' W 079°60'917.9
2018-Jun-11 04:30N 25°37' W 079°60'918.6
2018-Jun-11 04:00N 25°28' W 079°60'  
Track history (hours):
 
Tides and Currents Weather Stations Pressure Air Temp Water Temp Dewpoint Dewpoint Depression Visibility Wind Speed Wind Dir Waves Ship Positions

Paradero

Last reported at 2018-Jun-19 17:50 UTC. Time now 2018-Jun-25 04:27 UTC.
Position N 25°21' W 079°60'.

Length 140 m; draft 6.4 m.

Type: Cargo ship. MMSI: 339300320.

Date/timePositionNaut miles runAvg speedWind from/ knotsBaromVisibWave heightAir tempDewpointWater temp
2018-Jun-19 17:50N 25°21' W 079°60'514.0
2018-Jun-19 17:30N 25°26' W 079°60'714.0
2018-Jun-19 17:00N 25°33' W 080°00'713.7
2018-Jun-19 16:30N 25°40' W 079°60'713.9
2018-Jun-19 16:00N 25°47' W 079°60'714.0
2018-Jun-19 15:30N 25°54' W 079°60'714.1
2018-Jun-19 15:00N 26°01' W 080°00'613.0
2018-Jun-19 14:30N 26°06' W 080°05'2 4.3
2018-Jun-19 14:00N 26°04' W 080°07'0 0.0
2018-Jun-19 13:30N 26°04' W 080°07'0 0.0
2018-Jun-19 13:00N 26°04' W 080°07'0 0.0
2018-Jun-19 12:30N 26°04' W 080°07'0 0.0
2018-Jun-19 11:57N 26°04' W 080°07'0 0.0
2018-Jun-19 11:30N 26°04' W 080°07'0 0.0
2018-Jun-19 11:00N 26°04' W 080°07'0 0.0
2018-Jun-19 10:30N 26°04' W 080°07'0 0.0
2018-Jun-19 10:00N 26°04' W 080°07'0 0.0
2018-Jun-19 09:30N 26°04' W 080°07'0 0.0
2018-Jun-19 09:00N 26°04' W 080°07'0 0.0
2018-Jun-19 08:30N 26°04' W 080°07'0 0.0
2018-Jun-19 08:00N 26°04' W 080°07'0 0.0
2018-Jun-19 07:30N 26°04' W 080°07'0 0.0
2018-Jun-19 07:00N 26°04' W 080°07'0 0.0
2018-Jun-19 06:30N 26°04' W 080°07'0 0.0
2018-Jun-19 06:00N 26°04' W 080°07'0 0.0
2018-Jun-19 05:30N 26°04' W 080°07'0 0.0
2018-Jun-19 05:00N 26°04' W 080°07'0 0.0
2018-Jun-19 04:30N 26°04' W 080°07'0 0.0
2018-Jun-19 04:00N 26°04' W 080°07'0 0.0
2018-Jun-19 03:30N 26°04' W 080°07'0 0.0
2018-Jun-19 03:00N 26°04' W 080°07'0 0.0
2018-Jun-19 02:30N 26°04' W 080°07'0 0.0
2018-Jun-19 02:00N 26°04' W 080°07'0 0.0
2018-Jun-19 01:30N 26°04' W 080°07'0 0.0
2018-Jun-19 01:00N 26°04' W 080°07'0 0.0
2018-Jun-19 00:30N 26°04' W 080°07'0 0.0
2018-Jun-19 00:00N 26°04' W 080°07'0 0.0
2018-Jun-18 23:30N 26°04' W 080°07'0 0.0
2018-Jun-18 23:00N 26°04' W 080°07'0 0.0
2018-Jun-18 22:30N 26°04' W 080°07'0 0.0
2018-Jun-18 22:00N 26°04' W 080°07'0 0.0
2018-Jun-18 21:30N 26°04' W 080°07'0 0.0
2018-Jun-18 21:00N 26°04' W 080°07'0 0.0
2018-Jun-18 20:30N 26°04' W 080°07'0 0.0
2018-Jun-18 20:00N 26°04' W 080°07'0 0.3
2018-Jun-18 19:30N 26°04' W 080°07'2 3.4
2018-Jun-18 19:00N 26°06' W 080°06'4 7.3
2018-Jun-18 18:30N 26°05' W 080°02'2 4.4
2018-Jun-18 18:00N 26°07' W 080°01'1 2.7
2018-Jun-18 17:28N 26°09' W 080°00'1 2.3
2018-Jun-18 16:58N 26°08' W 079°60'1 2.3
2018-Jun-18 16:28N 26°07' W 079°59'1 2.3
2018-Jun-18 15:58N 26°05' W 079°59'2 2.4
2018-Jun-18 15:16N 26°04' W 079°58'1 2.5
2018-Jun-18 14:49N 26°03' W 079°58'1 2.5
2018-Jun-18 14:22N 26°02' W 079°58'1 2.6
2018-Jun-18 13:52N 26°00' W 079°58'1 2.6
2018-Jun-18 13:22N 25°59' W 079°57'1 2.6
2018-Jun-18 12:52N 25°58' W 079°57'1 2.6
2018-Jun-18 12:28N 25°57' W 079°57'1 2.7
2018-Jun-18 12:00N 25°56' W 079°57'714.4
2018-Jun-18 11:30N 25°48' W 079°57'917.9
2018-Jun-18 11:00N 25°40' W 079°59'917.6
2018-Jun-18 10:30N 25°31' W 080°00'917.7
2018-Jun-18 10:00N 25°22' W 079°59'  
2018-Jun-12 05:35N 25°16' W 080°01'114.2
2018-Jun-12 05:30N 25°17' W 080°01'714.2
2018-Jun-12 05:00N 25°24' W 080°01'714.2
2018-Jun-12 04:30N 25°31' W 079°60'714.9
2018-Jun-12 04:00N 25°38' W 079°60'815.6
2018-Jun-12 03:30N 25°46' W 080°00'816.2
2018-Jun-12 03:01N 25°54' W 079°60'815.6
2018-Jun-12 02:30N 26°02' W 080°01'611.9
2018-Jun-12 02:00N 26°06' W 080°07'2 3.2
2018-Jun-12 01:28N 26°04' W 080°07'0 0.0
2018-Jun-12 00:58N 26°04' W 080°07'0 0.0
2018-Jun-12 00:28N 26°04' W 080°07'0 0.0
2018-Jun-11 23:58N 26°04' W 080°07'0 0.0
2018-Jun-11 23:28N 26°04' W 080°07'0 0.0
2018-Jun-11 22:58N 26°04' W 080°07'0 0.0
2018-Jun-11 22:28N 26°04' W 080°07'0 0.0
2018-Jun-11 21:58N 26°04' W 080°07'0 0.0
2018-Jun-11 21:28N 26°04' W 080°07'0 0.0
2018-Jun-11 20:58N 26°04' W 080°07'0 0.0
2018-Jun-11 20:28N 26°04' W 080°07'0 0.0
2018-Jun-11 19:46N 26°04' W 080°07'0 0.0
2018-Jun-11 19:25N 26°04' W 080°07'0 0.0
2018-Jun-11 18:58N 26°04' W 080°07'0 0.0
2018-Jun-11 18:28N 26°04' W 080°07'0 0.0
2018-Jun-11 17:52N 26°04' W 080°07'0 0.0
2018-Jun-11 17:22N 26°04' W 080°07'0 0.0
2018-Jun-11 16:58N 26°04' W 080°07'0 0.0
2018-Jun-11 16:25N 26°04' W 080°07'0 0.0
2018-Jun-11 15:52N 26°04' W 080°07'0 0.0
2018-Jun-11 15:22N 26°04' W 080°07'0 0.0
2018-Jun-11 14:52N 26°04' W 080°07'0 0.0
2018-Jun-11 14:22N 26°04' W 080°07'0 0.0
2018-Jun-11 13:58N 26°04' W 080°07'0 0.0
2018-Jun-11 13:28N 26°04' W 080°07'0 0.0
2018-Jun-11 12:58N 26°04' W 080°07'0 0.0
2018-Jun-11 12:28N 26°04' W 080°07'0 0.0
2018-Jun-11 11:58N 26°04' W 080°07'0 0.0
2018-Jun-11 11:28N 26°04' W 080°07'0 0.0
2018-Jun-11 10:58N 26°04' W 080°07'0 0.0
2018-Jun-11 10:25N 26°04' W 080°07'0 0.0
2018-Jun-11 09:58N 26°04' W 080°07'0 0.0
2018-Jun-11 09:30N 26°04' W 080°07'0 0.0
2018-Jun-11 09:00N 26°04' W 080°07'0 0.1
2018-Jun-11 08:30N 26°04' W 080°07'0 0.0
2018-Jun-11 08:00N 26°04' W 080°07'0 0.0
2018-Jun-11 07:30N 26°04' W 080°07'0 0.4
2018-Jun-11 07:00N 26°04' W 080°07'2 4.3
2018-Jun-11 06:30N 26°06' W 080°05'510.3
2018-Jun-11 06:00N 26°03' W 080°00'816.3
2018-Jun-11 05:30N 25°55' W 079°59'917.5
2018-Jun-11 05:01N 25°46' W 079°60'917.9
2018-Jun-11 04:30N 25°37' W 079°60'918.6
2018-Jun-11 04:00N 25°28' W 079°60'  

Dump ship's entire track history